Data for 06/11/2007

Time Sea-Level Adjusted Pressure Absolute Pressure Temperature Relative Humidity Dew Point   
(mb) (inHg) (mb) (inHg) (C) (F) (%) (C) (F)
00:05 1012 29.88 841 24.83 16.7 62 54 7.3 45.2
00:10 1012 29.88 841 24.83 15.8 60.4 56 7.1 44.8
00:15 1012 29.88 841 24.83 15.2 59.3 60 7.4 45.4
00:20 1012 29.88 841 24.83 14.7 58.5 63 7.8 46.1
00:25 1012 29.88 841 24.83 14.2 57.5 66 8 46.4
00:30 1012 29.88 841 24.83 13.7 56.6 70 8.4 47.2
00:35 1012 29.88 842 24.86 12.9 55.3 74 8.5 47.3
00:40 1012 29.88 842 24.86 12.2 54 77 8.3 47
00:45 1013 29.91 842 24.86 11.9 53.3 78 8.1 46.6
00:50 1013 29.91 842 24.86 11.6 53 77 7.8 46.1
00:55 1013 29.91 842 24.86 11.4 52.5 78 7.8 46
01:00 1013 29.91 842 24.86 11 51.8 79 7.6 45.6
01:05 1013 29.91 842 24.86 10.7 51.3 80 7.4 45.3
01:10 1013 29.91 842 24.86 10.6 51.1 79 7.2 45
01:15 1013 29.91 842 24.86 10.6 51 80 7.2 45
01:20 1013 29.91 843 24.89 10.5 50.9 79 7.1 44.8
01:25 1014 29.94 843 24.89 10.5 50.8 78 6.8 44.2
01:30 1014 29.94 843 24.89 10.4 50.8 78 6.8 44.3
01:35 1014 29.94 843 24.89 10.4 50.6 78 6.7 44.1
01:40 1014 29.94 843 24.89 10.3 50.5 78 6.6 43.9
01:45 1014 29.94 843 24.89 10.3 50.5 77 6.5 43.7
01:50 1014 29.94 843 24.89 10.3 50.5 77 6.5 43.6
01:55 1014 29.94 843 24.89 10.3 50.5 77 6.5 43.7
02:00 1014 29.94 843 24.89 10.2 50.4 77 6.5 43.6
02:05 1014 29.94 843 24.89 10.1 50.1 78 6.4 43.5
02:10 1014 29.94 843 24.89 10.1 50.2 77 6.4 43.4
02:15 1014 29.94 843 24.89 10.2 50.3 77 6.4 43.5
02:20 1014 29.94 843 24.89 10.2 50.4 77 6.3 43.4
02:25 1014 29.94 843 24.89 10.2 50.4 77 6.5 43.6
02:30 1014 29.94 843 24.89 10.1 50.2 78 6.5 43.6
02:35 1014 29.94 843 24.89 10 50.1 78 6.4 43.5
02:40 1014 29.94 843 24.89 10.1 50.1 78 6.3 43.4
02:45 1014 29.94 843 24.89 10.1 50.2 77 6.4 43.4
02:50 1014 29.94 843 24.89 10 50.1 79 6.6 43.8
02:55 1014 29.94 843 24.89 9.9 49.8 79 6.4 43.5
03:00 1014 29.94 843 24.89 10 49.9 79 6.4 43.5
03:05 1014 29.94 843 24.89 10 50 79 6.5 43.6
03:10 1014 29.94 843 24.89 10 50 79 6.5 43.7
03:15 1014 29.94 843 24.89 9.9 49.8 79 6.5 43.7
03:20 1014 29.94 843 24.89 9.8 49.7 79 6.4 43.6
03:25 1014 29.94 843 24.89 9.8 49.7 79 6.4 43.6
03:30 1014 29.94 843 24.89 9.8 49.6 79 6.3 43.3
03:35 1014 29.94 843 24.89 9.9 49.8 78 6.2 43.2
03:40 1014 29.94 843 24.89 10 50 77 6.3 43.3
03:45 1014 29.94 843 24.89 10 49.9 78 6.3 43.3
03:50 1014 29.94 843 24.89 9.9 49.8 78 6.2 43.2
03:55 1014 29.94 843 24.89 9.8 49.7 78 6.2 43.2
04:00 1014 29.94 843 24.89 9.6 49.3 79 6.2 43.2
04:05 1014 29.94 844 24.92 9.3 48.8 80 6.2 43.1
04:10 1014 29.94 844 24.92 9.3 48.7 80 6.1 43
04:15 1014 29.94 844 24.92 9.3 48.8 80 6.1 43
04:20 1015 29.97 844 24.92 9.3 48.7 80 6.1 43
04:25 1015 29.97 844 24.92 9.2 48.6 81 6.1 43
04:30 1015 29.97 844 24.92 9.2 48.5 81 6.1 43
04:35 1015 29.97 844 24.92 9.2 48.5 82 6.2 43.2
04:40 1015 29.97 844 24.92 9.2 48.5 81 6.2 43.1
04:45 1015 29.97 844 24.92 9.2 48.5 81 6.2 43.1
04:50 1015 29.97 844 24.92 9.1 48.4 82 6.2 43.2
04:55 1015 29.97 844 24.92 9.1 48.3 82 6.2 43.2
05:00 1015 29.97 844 24.92 9.1 48.4 82 6.2 43.2
05:05 1015 29.97 844 24.92 9.2 48.5 82 6.3 43.3
05:10 1015 29.97 844 24.92 9.1 48.4 83 6.3 43.4
05:15 1015 29.97 844 24.92 9 48.1 83 6.3 43.4
05:20 1015 29.97 844 24.92 8.9 47.9 84 6.3 43.4
05:25 1015 29.97 844 24.92 9 48.1 84 6.3 43.4
05:30 1015 29.97 844 24.92 9.1 48.3 83 6.3 43.3
05:35 1015 29.97 844 24.92 9 48.3 83 6.3 43.4
05:40 1015 29.97 844 24.92 9 48.2 83 6.3 43.4
05:45 1015 29.97 844 24.92 8.8 47.9 85 6.5 43.6
05:50 1015 29.97 844 24.92 8.9 48 85 6.6 43.9
05:55 1015 29.97 844 24.92 8.8 47.9 87 6.9 44.4
06:00 1015 29.97 844 24.92 8.9 48 88 7 44.6
06:05 1015 29.97 844 24.92 8.9 48 88 6.9 44.5
06:10 1015 29.97 844 24.92 8.8 47.8 88 6.9 44.4
06:15 1015 29.97 844 24.92 8.8 47.8 88 6.9 44.3
06:20 1015 29.97 844 24.92 8.8 47.8 88 6.9 44.5
06:25 1015 29.97 845 24.95 8.9 48 89 7.1 44.8
06:30 1016 30 845 24.95 9.1 48.3 88 7.2 45
06:35 1016 30 845 24.95 9.2 48.6 88 7.3 45.1
06:40 1016 30 845 24.95 9.4 48.9 87 7.3 45.1
06:45 1016 30 845 24.95 9.5 49.1 85 7.1 44.7
06:50 1016 30 845 24.95 9.4 48.8 86 7.1 44.8
06:55 1016 30 845 24.95 9.5 49 86 7.2 45
07:00 1016 30 845 24.95 9.6 49.2 85 7.2 45
07:05 1016 30 845 24.95 9.7 49.4 86 7.4 45.3
07:10 1016 30 845 24.95 9.7 49.5 85 7.3 45.1
07:15 1016 30 845 24.95 9.7 49.4 86 7.4 45.3
07:20 1016 30 845 24.95 9.7 49.5 84 7.2 45
07:25 1016 30 845 24.95 9.8 49.6 85 7.4 45.2
07:30 1016 30 845 24.95 9.9 49.9 84 7.3 45.1
07:35 1016 30 845 24.95 9.9 49.8 84 7.2 45
07:40 1016 30 845 24.95 9.6 49.3 84 7.1 44.8
07:45 1016 30 845 24.95 9.8 49.6 84 7.2 45
07:50 1016 30 845 24.95 10.4 50.7 82 7.4 45.3
07:55 1016 30 845 24.95 10.4 50.7 83 7.6 45.6
08:00 1016 30 845 24.95 10.3 50.6 83 7.6 45.7
08:05 1016 30 845 24.95 10.4 50.8 83 7.6 45.8
08:10 1016 30 845 24.95 10.5 50.8 83 7.8 46
08:15 1016 30 845 24.95 10.6 51.1 82 7.8 46
08:20 1016 30 845 24.95 10.8 51.4 82 7.8 46
08:25 1016 30 845 24.95 10.6 51 83 7.9 46.2
08:30 1016 30 846 24.98 10.4 50.7 85 8 46.4
08:35 1016 30 846 24.98 10.5 50.9 84 8 46.4
08:40 1016 30 846 24.98 10.4 50.7 85 8 46.4
08:45 1017 30.03 846 24.98 10.4 50.7 85 8 46.4
08:50 1017 30.03 846 24.98 10.6 51.2 84 8 46.4
08:55 1017 30.03 846 24.98 10.7 51.2 83 7.9 46.2
09:00 1017 30.03 846 24.98 10.7 51.2 82 7.8 46
09:05 1017 30.03 846 24.98 11.2 52.2 80 7.9 46.3
09:10 1017 30.03 846 24.98 11.7 53 78 7.9 46.3
09:15 1017 30.03 846 24.98 11.9 53.5 78 8.2 46.7
09:20 1017 30.03 846 24.98 12.3 54.1 75 8 46.5
09:25 1017 30.03 846 24.98 12.8 55 72 7.9 46.3
09:30 1017 30.03 846 24.98 12.8 55 72 7.9 46.2
09:35 1017 30.03 846 24.98 12.5 54.6 71 7.5 45.5
09:40 1017 30.03 846 24.98 12.6 54.8 68 7 44.5
09:45 1017 30.03 846 24.98 13.3 55.9 65 7 44.6
09:50 1017 30.03 846 24.98 14.2 57.6 62 7 44.7
09:55 1017 30.03 846 24.98 14.8 58.6 61 7.4 45.3
10:00 1017 30.03 846 24.98 15 58.9 59 7.2 44.9
10:05 1017 30.03 846 24.98 15.2 59.3 60 7.6 45.8
10:10 1017 30.03 846 24.98 14.5 58.1 65 8.1 46.6
10:15 1017 30.03 846 24.98 13.3 56 68 7.6 45.6
10:20 1017 30.03 846 24.98 14 57.1 60 6.4 43.5
10:25 1017 30.03 846 24.98 15.3 59.5 56 6.7 44
10:30 1017 30.03 846 24.98 14.8 58.6 61 7.4 45.4
10:35 1017 30.03 846 24.98 14.6 58.3 60 6.9 44.4
10:40 1016 30 846 24.98 15.4 59.7 55 6.5 43.6
10:45 1016 30 846 24.98 15.7 60.2 54 6.6 43.9
10:50 1016 30 846 24.98 15.6 60.1 54 6.4 43.5
10:55 1016 30 846 24.98 16.2 61.1 53 6.8 44.2
11:00 1016 30 846 24.98 15.7 60.3 53 6.4 43.5
11:05 1016 30 846 24.98 15.1 59.2 57 6.8 44.2
11:10 1016 30 846 24.98 14.9 58.9 57 6.6 43.9
11:15 1016 30 846 24.98 14.9 58.9 56 6.3 43.4
11:20 1016 30 846 24.98 15.7 60.3 54 6.5 43.7
11:25 1016 30 846 24.98 15.3 59.5 57 6.8 44.3
11:30 1016 30 845 24.95 15.1 59.1 54 5.9 42.7
11:35 1016 30 846 24.98 16.2 61.1 53 6.8 44.2
11:40 1016 30 846 24.98 16.3 61.3 53 6.8 44.2
11:45 1016 30 846 24.98 16.5 61.6 51 6.3 43.3
11:50 1016 30 845 24.95 17.1 62.8 48 6.1 43
11:55 1016 30 846 24.98 17.3 63.2 51 7.2 45
12:00 1016 30 845 24.95 16.9 62.4 52 6.9 44.5
12:05 1016 30 845 24.95 17.4 63.2 50 6.9 44.5
12:10 1016 30 845 24.95 16.5 61.7 54 7.2 45
12:15 1016 30 845 24.95 16.8 62.3 52 7 44.5
12:20 1016 30 845 24.95 16 60.8 54 6.7 44.1
12:25 1016 30 845 24.95 17.3 63.1 48 6.3 43.3
12:30 1016 30 845 24.95 18.2 64.7 48 7 44.6
12:35 1016 30 845 24.95 18 64.3 49 7.2 45
12:40 1016 30 845 24.95 17.8 64.1 47 6.5 43.7
12:45 1016 30 845 24.95 18.2 64.8 51 8 46.4
12:50 1016 30 845 24.95 16.9 62.5 51 6.8 44.2
12:55 1016 30 845 24.95 17.5 63.6 49 6.9 44.4
13:00 1016 30 845 24.95 18.2 64.7 48 7.3 45.1
13:05 1016 30 845 24.95 18 64.4 49 7.3 45.2
13:10 1016 30 845 24.95 17.1 62.8 50 6.9 44.4
13:15 1016 30 845 24.95 18.2 64.7 46 6.4 43.5
13:20 1016 30 845 24.95 18.8 65.9 46 7.2 45
13:25 1016 30 845 24.95 19.1 66.5 47 7.6 45.6
13:30 1016 30 845 24.95 19 66.3 48 7.8 46.1
13:35 1016 30 845 24.95 18.5 65.2 49 7.8 46
13:40 1016 30 845 24.95 18.4 65.1 50 7.9 46.2
13:45 1016 30 845 24.95 18.5 65.3 47 7.1 44.7
13:50 1016 30 845 24.95 19.2 66.6 46 7.4 45.3
13:55 1016 30 845 24.95 19.5 67.1 46 7.9 46.2
14:00 1016 30 845 24.95 18.7 65.6 49 7.9 46.2
14:05 1016 30 845 24.95 18.5 65.3 50 8.1 46.5
14:10 1015 29.97 845 24.95 18.9 66 46 7.3 45.2
14:15 1015 29.97 845 24.95 18.2 64.7 52 8.4 47.1
14:20 1015 29.97 845 24.95 17.3 63.1 54 7.9 46.2
14:25 1015 29.97 845 24.95 17 62.6 54 7.9 46.2
14:30 1015 29.97 845 24.95 17.9 64.3 49 7.2 45
14:35 1015 29.97 845 24.95 19.4 66.9 46 7.5 45.5
14:40 1015 29.97 845 24.95 19.7 67.5 45 7.6 45.7
14:45 1015 29.97 845 24.95 19.9 67.8 45 7.6 45.7
14:50 1015 29.97 844 24.92 20.1 68.1 43 7.1 44.7
14:55 1015 29.97 844 24.92 20.1 68.2 43 7.3 45.2
15:00 1015 29.97 844 24.92 20.2 68.4 44 7.8 46
15:05 1015 29.97 844 24.92 19.9 67.8 44 7.4 45.4
15:10 1015 29.97 844 24.92 20 68.1 42 6.8 44.2
15:15 1015 29.97 844 24.92 20.9 69.6 40 6.9 44.4
15:20 1015 29.97 844 24.92 20.9 69.7 41 7.5 45.4
15:25 1015 29.97 844 24.92 20.9 69.7 43 7.9 46.2
15:30 1015 29.97 844 24.92 20.9 69.7 40 6.9 44.5
15:35 1015 29.97 844 24.92 21.1 70 42 7.9 46.2
15:40 1015 29.97 844 24.92 21.5 70.7 39 7.2 45
15:45 1015 29.97 844 24.92 21.4 70.5 41 7.6 45.8
15:50 1015 29.97 844 24.92 19.8 67.6 46 7.9 46.3
15:55 1015 29.97 844 24.92 18.7 65.6 49 7.9 46.3
16:00 1015 29.97 844 24.92 19.4 66.9 44 7.1 44.8
16:05 1015 29.97 844 24.92 19.1 66.3 47 7.7 45.8
16:10 1015 29.97 844 24.92 19.3 66.7 45 7.1 44.8
16:15 1015 29.97 844 24.92 20 68 44 7.3 45.2
16:20 1015 29.97 844 24.92 20.5 68.8 41 7.1 44.7
16:25 1015 29.97 844 24.92 20.7 69.3 41 7.1 44.9
16:30 1015 29.97 844 24.92 20.6 69 42 7.4 45.3
16:35 1015 29.97 844 24.92 21.1 70 40 7.3 45.1
16:40 1015 29.97 844 24.92 21.4 70.5 40 7.2 45
16:45 1015 29.97 844 24.92 21.3 70.4 39 7.1 44.8
16:50 1015 29.97 844 24.92 20.5 68.8 42 7.4 45.3
16:55 1015 29.97 844 24.92 21 69.7 39 6.7 44.1
17:00 1015 29.97 844 24.92 21.5 70.6 38 6.9 44.4
17:05 1015 29.97 844 24.92 21.7 71 37 6.7 44.1
17:10 1015 29.97 844 24.92 21.5 70.6 38 6.9 44.3
17:15 1015 29.97 844 24.92 21.1 69.9 38 6.4 43.5
17:20 1015 29.97 844 24.92 21.3 70.3 38 6.5 43.7
17:25 1015 29.97 844 24.92 21.1 69.9 39 6.9 44.3
17:30 1015 29.97 844 24.92 20 67.9 41 6.4 43.6
17:35 1015 29.97 844 24.92 19.9 67.8 41 6.3 43.4
17:40 1015 29.97 844 24.92 20 68 41 6.5 43.6
17:45 1015 29.97 844 24.92 20.2 68.4 40 6.3 43.4
17:50 1015 29.97 844 24.92 21.1 69.9 37 6.2 43.1
17:55 1015 29.97 844 24.92 20.8 69.4 40 6.8 44.2
18:00 1015 29.97 844 24.92 20.4 68.7 39 6 42.8
18:05 1015 29.97 844 24.92 20.6 69.2 40 6.7 44
18:10 1015 29.97 844 24.92 21.5 70.7 35 5.7 42.3
18:15 1015 29.97 844 24.92 21 69.7 40 6.9 44.4
18:20 1015 29.97 844 24.92 20.1 68.3 39 5.9 42.5
18:25 1015 29.97 844 24.92 20.8 69.4 36 5.4 41.8
18:30 1015 29.97 844 24.92 21.2 70.1 38 6.3 43.3
18:35 1015 29.97 844 24.92 19.9 67.8 41 6.4 43.6
18:40 1015 29.97 844 24.92 19.5 67 41 5.9 42.5
18:45 1015 29.97 844 24.92 19.9 67.9 40 5.9 42.6
18:50 1015 29.97 844 24.92 19.8 67.6 41 6.2 43.2
18:55 1015 29.97 844 24.92 19.6 67.2 41 6.2 43.2
19:00 1015 29.97 844 24.92 20.1 68.3 40 6.3 43.3
19:05 1015 29.97 844 24.92 20.6 69 38 5.9 42.6
19:10 1015 29.97 844 24.92 20.9 69.6 38 6.1 43
19:15 1015 29.97 844 24.92 21 69.8 35 5.3 41.6
19:20 1015 29.97 844 24.92 21 69.7 35 5.2 41.4
19:25 1015 29.97 844 24.92 20.4 68.8 37 5.6 42
19:30 1015 29.97 844 24.92 19.9 67.9 38 5.5 41.9
19:35 1015 29.97 844 24.92 20 67.9 38 5.3 41.6
19:40 1015 29.97 844 24.92 20.2 68.3 38 5.6 42
19:45 1015 29.97 844 24.92 20.3 68.5 38 5.7 42.3
19:50 1015 29.97 844 24.92 20.2 68.4 39 6 42.9
19:55 1015 29.97 844 24.92 20.1 68.1 39 5.7 42.3
20:00 1015 29.97 844 24.92 19.9 67.7 43 7.1 44.8
20:05 1015 29.97 844 24.92 19.6 67.3 42 6.4 43.6
20:10 1015 29.97 844 24.92 19.5 67 42 6.5 43.6
20:15 1015 29.97 844 24.92 19.3 66.7 45 7 44.6
20:20 1015 29.97 844 24.92 19.3 66.7 45 7.1 44.8
20:25 1015 29.97 844 24.92 19.3 66.7 46 7.4 45.3
20:30 1015 29.97 844 24.92 19.2 66.5 46 7.5 45.4
20:35 1015 29.97 844 24.92 19.1 66.4 47 7.7 45.9
20:40 1015 29.97 844 24.92 18.9 65.9 49 8 46.5
20:45 1015 29.97 845 24.95 18.2 64.7 50 7.6 45.6
20:50 1015 29.97 845 24.95 17.4 63.2 51 7.1 44.8
20:55 1015 29.97 845 24.95 16.6 61.9 52 6.8 44.3
21:00 1016 30 845 24.95 16 60.7 52 6.3 43.3
21:05 1016 30 845 24.95 15.5 59.8 52 5.7 42.2
21:10 1016 30 845 24.95 15 59 53 5.7 42.2
21:15 1016 30 845 24.95 14 57.3 54 4.8 40.7
21:20 1016 30 845 24.95 13.8 56.9 52 4.3 39.7
21:25 1016 30 845 24.95 14.1 57.4 49 3.5 38.3
21:30 1016 30 845 24.95 14.4 58 49 4.1 39.3
21:35 1016 30 845 24.95 14.1 57.5 52 4.5 40.2
21:40 1016 30 845 24.95 14 57.3 49 3.6 38.6
21:45 1016 30 845 24.95 14.3 57.7 51 4.5 40.1
21:50 1016 30 845 24.95 14.1 57.4 49 3.5 38.4
21:55 1016 30 845 24.95 14.3 57.8 47 3.2 37.7
22:00 1016 30 845 24.95 14.6 58.2 47 3.4 38.1
22:05 1016 30 846 24.98 14.7 58.5 47 3.6 38.5
22:10 1017 30.03 846 24.98 14.8 58.6 47 3.8 38.8
22:15 1017 30.03 846 24.98 14.9 58.7 42 2.3 36.1
22:20 1017 30.03 846 24.98 15.1 59.1 44 3 37.5
22:25 1017 30.03 846 24.98 15 58.9 44 2.8 37.1
22:30 1017 30.03 846 24.98 14.8 58.7 46 3.3 38
22:35 1017 30.03 846 24.98 14.3 57.8 49 3.7 38.7
22:40 1017 30.03 846 24.98 14 57.1 51 4 39.2
22:45 1017 30.03 846 24.98 13.8 56.9 53 4.5 40.1
22:50 1017 30.03 846 24.98 13.4 56.1 53 4.1 39.5
22:55 1017 30.03 846 24.98 13.6 56.5 53 4.1 39.5
23:00 1017 30.03 846 24.98 13.6 56.4 52 4.1 39.4
23:05 1017 30.03 846 24.98 13.6 56.4 54 4.5 40.1
23:10 1017 30.03 846 24.98 13.3 55.9 56 4.8 40.7
23:15 1017 30.03 846 24.98 12.9 55.1 57 4.6 40.4
23:20 1017 30.03 846 24.98 12.8 55 56 4.4 40
23:25 1017 30.03 846 24.98 13 55.5 55 4.2 39.5
23:30 1017 30.03 846 24.98 13.2 55.7 57 4.9 40.8
23:35 1017 30.03 846 24.98 12.6 54.7 61 5.5 41.9
23:40 1017 30.03 846 24.98 12.2 54 63 5.4 41.7
23:45 1017 30.03 846 24.98 12.1 53.8 64 5.6 42
23:50 1017 30.03 846 24.98 12 53.5 66 5.8 42.4
23:55 1017 30.03 846 24.98 11.9 53.4 65 5.6 42
24:00 1017 30.03 846 24.98 12.1 53.8 64 5.5 41.9